Time;durP1;ratioP1;P1;durP2;ratioP2;P2;SDS_P1;SDS_P2;PMS_P1;PMS_P2;Temp;Humidity;BMP_temperature;BMP_pressure;BME280_temperature;BME280_humidity;BME280_pressure;Samples;Min_cycle;Max_cycle;Signal;HPM_P1;HPM_P2
2023/10/26 00:00:47;;;;;;;0.10;0.10;;;;;;;20.40;55.15;100009.94;4731452;30;20440;-84
2023/10/26 00:03:13;;;;;;;0.10;0.10;;;;;;;20.36;55.01;100014.19;4731193;30;20484;-84
2023/10/26 00:05:39;;;;;;;0.30;0.30;;;;;;;20.27;55.38;100017.59;4717077;30;20509;-84
2023/10/26 00:08:04;;;;;;;0.70;0.70;;;;;;;19.91;57.09;100019.81;4732190;30;21080;-84
2023/10/26 00:10:30;;;;;;;0.10;0.10;;;;;;;19.91;56.92;100020.63;4738972;30;20437;-84
2023/10/26 00:12:56;;;;;;;0.10;0.10;;;;;;;20.09;56.47;100013.34;4716617;30;20500;-84
2023/10/26 00:15:21;;;;;;;0.10;0.10;;;;;;;20.06;56.91;100028.13;4730836;30;20818;-83
2023/10/26 00:17:47;;;;;;;0.00;0.00;;;;;;;19.89;57.70;100032.72;4715708;30;20432;-84
2023/10/26 00:20:13;;;;;;;0.10;0.10;;;;;;;19.98;57.04;100025.84;4716677;30;20428;-85
2023/10/26 00:22:38;;;;;;;0.10;0.10;;;;;;;20.11;56.56;100036.22;4716550;30;20432;-85
2023/10/26 00:25:04;;;;;;;0.10;0.10;;;;;;;20.05;56.85;100029.16;4716594;30;20425;-84
2023/10/26 00:27:31;;;;;;;0.10;0.10;;;;;;;20.19;56.18;100026.91;4731713;30;20449;-85
2023/10/26 00:29:57;;;;;;;0.10;0.10;;;;;;;20.30;55.85;100025.97;4716361;30;20429;-85
2023/10/26 00:32:22;;;;;;;0.10;0.10;;;;;;;20.29;55.91;100023.53;4716322;30;20478;-85
2023/10/26 00:34:49;;;;;;;0.63;0.32;;;;;;;20.29;55.65;100010.06;4715615;30;20429;-84
2023/10/26 00:37:14;;;;;;;0.10;0.10;;;;;;;20.30;55.51;100019.78;4731233;30;20913;-86
2023/10/26 00:39:40;;;;;;;0.20;0.20;;;;;;;20.33;55.31;100009.31;4716223;30;20421;-86
2023/10/26 00:42:06;;;;;;;0.10;0.10;;;;;;;20.42;55.11;100012.38;4740801;30;20466;-86
2023/10/26 00:44:33;;;;;;;0.10;0.10;;;;;;;20.38;54.98;100006.69;4750774;30;20925;-85
2023/10/26 00:47:04;;;;;;;0.10;0.10;;;;;;;20.38;54.80;100001.31;4749365;30;20924;-85
2023/10/26 00:49:34;;;;;;;0.10;0.10;;;;;;;20.39;54.87;100005.63;4733986;30;20503;-85
2023/10/26 00:52:01;;;;;;;0.00;0.00;;;;;;;20.43;54.65;100011.31;4749207;30;20428;-85
2023/10/26 00:54:28;;;;;;;0.10;0.10;;;;;;;20.46;54.46;100004.63;4734984;30;20411;-85
2023/10/26 00:56:56;;;;;;;0.20;0.20;;;;;;;20.51;54.09;100010.88;4750474;30;20883;-84
2023/10/26 00:59:27;;;;;;;0.10;0.10;;;;;;;20.60;53.95;100006.66;4720467;30;20415;-84
2023/10/26 01:01:54;;;;;;;0.00;0.00;;;;;;;20.69;53.64;100001.66;4735070;30;20427;-84
2023/10/26 01:04:21;;;;;;;0.20;0.20;;;;;;;20.73;53.52;99996.56;4750146;30;20874;-85
2023/10/26 01:06:47;;;;;;;0.00;0.00;;;;;;;20.64;53.64;99993.53;4750252;30;20422;-84
2023/10/26 01:09:14;;;;;;;0.10;0.10;;;;;;;20.57;53.73;99999.06;4748359;30;20444;-85
2023/10/26 01:11:41;;;;;;;0.10;0.10;;;;;;;20.64;53.23;99990.84;4748987;30;20412;-86
2023/10/26 01:14:09;;;;;;;0.10;0.10;;;;;;;20.49;53.80;99977.16;4748778;30;20423;-84
2023/10/26 01:16:39;;;;;;;0.10;0.10;;;;;;;20.47;53.79;99977.41;4733055;30;20801;-83
2023/10/26 01:19:08;;;;;;;0.10;0.10;;;;;;;20.49;53.76;99983.38;4733455;30;20458;-84
2023/10/26 01:21:53;;;;;;;0.10;0.10;;;;;;;20.50;53.72;99978.81;4767491;30;20412;-84
2023/10/26 01:24:20;;;;;;;0.00;0.00;;;;;;;20.50;53.58;99982.31;4735974;30;20955;-83
2023/10/26 01:26:48;;;;;;;0.90;0.55;;;;;;;20.58;53.46;99983.72;4756130;30;20456;-83
2023/10/26 01:29:14;;;;;;;0.00;0.00;;;;;;;20.66;53.33;99991.38;4739195;30;20782;-84
2023/10/26 01:31:39;;;;;;;0.17;0.17;;;;;;;20.66;53.23;99987.88;4740218;30;20903;-84
2023/10/26 01:34:05;;;;;;;0.30;0.30;;;;;;;20.52;53.58;99984.75;4756731;30;20420;-85
2023/10/26 01:36:31;;;;;;;0.30;0.30;;;;;;;20.43;53.87;99989.78;4761342;30;20427;-84
2023/10/26 01:38:59;;;;;;;1.30;0.20;;;;;;;20.39;53.91;99997.53;4751896;30;20427;-86
2023/10/26 01:41:27;;;;;;;0.10;0.10;;;;;;;20.55;53.58;99997.72;4765757;30;20434;-85
2023/10/26 01:43:53;;;;;;;0.17;0.17;;;;;;;20.52;53.55;99995.53;4749815;30;20407;-84
2023/10/26 01:46:26;;;;;;;0.10;0.10;;;;;;;20.50;53.59;99994.97;4757208;30;20415;-83
2023/10/26 01:48:51;;;;;;;0.10;0.10;;;;;;;20.54;53.38;100002.25;4730259;30;20446;-83
2023/10/26 01:51:17;;;;;;;0.90;0.20;;;;;;;20.53;53.54;100005.25;4754181;30;20506;-84
2023/10/26 01:53:44;;;;;;;0.10;0.10;;;;;;;20.44;53.62;100005.66;4743281;30;20439;-85
2023/10/26 01:56:16;;;;;;;0.10;0.10;;;;;;;20.51;53.50;99996.56;4755837;30;20546;-84
2023/10/26 01:58:41;;;;;;;1.20;1.10;;;;;;;20.48;53.46;99989.03;4754454;30;20418;-85
2023/10/26 02:01:07;;;;;;;0.10;0.10;;;;;;;20.50;53.40;99984.19;4754497;30;20419;-86
2023/10/26 02:03:32;;;;;;;0.20;0.20;;;;;;;20.53;53.24;99991.78;4754363;30;20427;-84
2023/10/26 02:05:58;;;;;;;0.23;0.23;;;;;;;20.51;53.19;99975.03;4754172;30;20419;-85
2023/10/26 02:08:23;;;;;;;0.10;0.10;;;;;;;20.54;52.93;99983.41;4754920;30;20450;-84
2023/10/26 02:10:49;;;;;;;0.10;0.10;;;;;;;20.55;52.69;99979.66;4755201;30;20785;-85
2023/10/26 02:13:14;;;;;;;0.30;0.30;;;;;;;20.60;52.73;99979.72;4754049;30;20430;-84
2023/10/26 02:15:42;;;;;;;0.10;0.10;;;;;;;20.60;52.89;99970.84;4755202;30;20472;-84
2023/10/26 02:18:08;;;;;;;0.10;0.10;;;;;;;20.65;52.64;99978.97;4739669;30;20439;-83
2023/10/26 02:20:33;;;;;;;0.10;0.10;;;;;;;20.62;52.63;99979.50;4755264;30;20454;-83
2023/10/26 02:22:59;;;;;;;0.00;0.00;;;;;;;20.58;52.40;99983.72;4755053;30;20423;-83
2023/10/26 02:25:25;;;;;;;0.10;0.10;;;;;;;20.53;52.48;99986.38;4754945;30;20423;-84
2023/10/26 02:27:57;;;;;;;0.60;0.40;;;;;;;20.56;52.34;99980.47;4753908;30;20443;-85
2023/10/26 02:30:22;;;;;;;0.20;0.20;;;;;;;20.57;52.26;99988.31;4753954;30;20930;-84
2023/10/26 02:32:49;;;;;;;0.30;0.30;;;;;;;20.61;52.14;99988.63;4754496;30;20415;-84
2023/10/26 02:35:20;;;;;;;0.10;0.10;;;;;;;20.58;51.93;99989.94;4739171;30;20439;-84
2023/10/26 02:37:47;;;;;;;0.40;0.40;;;;;;;20.68;51.77;100001.91;4755216;30;20791;-83
2023/10/26 02:40:13;;;;;;;0.10;0.10;;;;;;;20.55;51.95;99989.63;4754610;30;20404;-84
2023/10/26 02:42:41;;;;;;;0.10;0.10;;;;;;;20.50;52.02;99994.97;4749933;30;20488;-83
2023/10/26 02:45:25;;;;;;;0.50;0.30;;;;;;;20.50;52.08;99998.47;4742340;30;20554;-85
2023/10/26 02:47:52;;;;;;;0.03;0.03;;;;;;;20.55;51.96;100003.09;4750818;30;20863;-85
2023/10/26 02:50:17;;;;;;;0.20;0.20;;;;;;;20.40;52.18;100001.03;4750638;30;20417;-85
2023/10/26 02:52:43;;;;;;;1.60;0.17;;;;;;;20.44;52.19;99999.47;4750528;30;20491;-84
2023/10/26 02:55:08;;;;;;;0.10;0.10;;;;;;;20.27;52.58;99998.75;4738893;30;20448;-84
2023/10/26 02:57:34;;;;;;;0.10;0.10;;;;;;;20.25;52.49;99999.78;4739137;30;20431;-84
2023/10/26 02:59:59;;;;;;;0.20;0.20;;;;;;;20.19;52.71;99994.63;4750952;30;20468;-83
2023/10/26 03:02:26;;;;;;;0.13;0.13;;;;;;;20.17;52.70;99994.88;4748269;30;20440;-84
2023/10/26 03:04:55;;;;;;;0.30;0.30;;;;;;;20.07;52.88;99997.44;4755977;30;20951;-85
2023/10/26 03:07:22;;;;;;;0.13;0.13;;;;;;;20.04;52.89;100000.63;4741044;30;20430;-85
2023/10/26 03:09:52;;;;;;;0.17;0.17;;;;;;;20.04;52.94;99998.75;4742480;30;20499;-85
2023/10/26 03:12:22;;;;;;;0.70;0.70;;;;;;;19.73;53.89;99992.16;4750791;30;20479;-87
2023/10/26 03:14:48;;;;;;;0.30;0.30;;;;;;;19.66;54.00;100002.25;4733290;30;20514;-85
2023/10/26 03:17:17;;;;;;;0.10;0.10;;;;;;;19.67;53.88;100010.06;4742745;30;20435;-87
2023/10/26 03:19:49;;;;;;;0.10;0.10;;;;;;;19.75;53.60;100002.66;4740147;30;20422;-86
2023/10/26 03:22:17;;;;;;;0.10;0.10;;;;;;;19.74;53.50;100006.44;4747247;30;20435;-85
2023/10/26 03:24:44;;;;;;;0.10;0.10;;;;;;;19.71;53.52;99998.81;4726201;30;20487;-85
2023/10/26 03:27:10;;;;;;;0.10;0.10;;;;;;;19.60;53.65;99992.50;4764628;30;20473;-83
2023/10/26 03:29:39;;;;;;;0.10;0.10;;;;;;;19.52;53.96;100006.34;4767395;30;20433;-85
2023/10/26 03:32:06;;;;;;;0.10;0.10;;;;;;;19.48;54.00;100004.16;4718835;30;20450;-86
2023/10/26 03:34:35;;;;;;;0.00;0.00;;;;;;;19.64;53.77;100001.69;4708851;30;20430;-86
2023/10/26 03:37:08;;;;;;;0.10;0.10;;;;;;;19.70;53.34;99998.00;4749582;30;20952;-83
2023/10/26 03:39:59;;;;;;;0.10;0.10;;;;;;;19.75;53.24;100003.47;4726979;30;20427;-83
2023/10/26 03:42:37;;;;;;;0.00;0.00;;;;;;;19.84;52.93;100002.00;4721467;30;20942;-84
2023/10/26 03:45:18;;;;;;;0.10;0.10;;;;;;;19.92;52.56;99997.25;4750270;30;20430;-83
2023/10/26 03:47:44;;;;;;;0.10;0.10;;;;;;;19.72;53.11;100012.03;4747423;30;20450;-84
2023/10/26 03:50:12;;;;;;;0.10;0.10;;;;;;;19.60;53.30;100011.31;4724298;30;20479;-83
2023/10/26 03:52:39;;;;;;;0.10;0.10;;;;;;;19.54;53.45;99996.19;4707216;30;20548;-82
2023/10/26 03:55:05;;;;;;;0.00;0.00;;;;;;;19.64;53.29;100004.38;4714411;30;20975;-81
2023/10/26 03:57:36;;;;;;;0.10;0.10;;;;;;;19.74;53.12;100001.06;4714497;30;20463;-90
2023/10/26 04:00:09;;;;;;;0.10;0.10;;;;;;;19.84;52.84;99995.78;4726123;30;20433;-86
2023/10/26 04:02:35;;;;;;;0.20;0.20;;;;;;;19.75;52.73;99991.91;4727569;30;20807;-84
2023/10/26 04:05:06;;;;;;;0.00;0.00;;;;;;;19.65;52.95;99988.00;4732580;30;20949;-84
2023/10/26 04:07:33;;;;;;;0.00;0.00;;;;;;;19.65;53.02;99988.00;4734297;30;20505;-85
2023/10/26 04:10:01;;;;;;;0.10;0.10;;;;;;;19.63;52.91;99990.13;4733668;30;20452;-85
2023/10/26 04:12:28;;;;;;;0.10;0.10;;;;;;;19.55;53.16;99989.72;4749260;30;20419;-85
2023/10/26 04:14:55;;;;;;;0.40;0.35;;;;;;;19.54;53.16;99983.53;4720098;30;20493;-85
2023/10/26 04:17:20;;;;;;;0.10;0.10;;;;;;;19.57;53.31;99988.44;4733354;30;20432;-84
2023/10/26 04:19:48;;;;;;;0.10;0.10;;;;;;;19.49;53.45;99973.50;4735375;30;20533;-87
2023/10/26 04:22:18;;;;;;;0.10;0.10;;;;;;;19.59;53.17;99983.63;4720464;30;20517;-87
2023/10/26 04:24:47;;;;;;;0.10;0.10;;;;;;;19.52;53.16;99982.97;4696468;30;20984;-87
2023/10/26 04:27:19;;;;;;;0.10;0.10;;;;;;;19.51;53.21;99983.22;4650677;30;20454;-87
2023/10/26 04:29:45;;;;;;;0.00;0.00;;;;;;;19.56;53.08;99977.91;4679931;30;20945;-88
2023/10/26 04:32:12;;;;;;;0.10;0.10;;;;;;;19.53;53.10;99981.09;4670267;30;20449;-86
2023/10/26 04:34:43;;;;;;;0.10;0.10;;;;;;;19.61;52.89;99986.88;4682607;30;20890;-86
2023/10/26 04:37:12;;;;;;;1.60;0.40;;;;;;;19.60;52.97;99981.72;4690025;30;20440;-86
2023/10/26 04:39:43;;;;;;;0.10;0.10;;;;;;;19.56;52.82;99969.84;4695220;30;20432;-86
2023/10/26 04:42:11;;;;;;;0.05;0.05;;;;;;;19.57;52.78;99975.00;4699237;30;20775;-87
2023/10/26 04:44:43;;;;;;;0.13;0.13;;;;;;;19.54;52.81;99970.09;4699119;30;20491;-86
2023/10/26 04:47:36;;;;;;;0.20;0.10;;;;;;;19.51;53.01;99973.28;4683141;30;20433;-86
2023/10/26 04:50:13;;;;;;;0.03;0.03;;;;;;;19.55;52.71;99963.66;4710448;30;20443;-87
2023/10/26 04:52:42;;;;;;;0.60;0.60;;;;;;;19.56;52.65;99959.09;4687668;30;20861;-85
2023/10/26 04:55:11;;;;;;;0.40;0.30;;;;;;;19.48;52.91;99971.06;4683621;30;20454;-85
2023/10/26 04:57:38;;;;;;;0.10;0.10;;;;;;;19.38;53.02;99969.06;4717772;30;21019;-86
2023/10/26 05:00:09;;;;;;;0.17;0.17;;;;;;;19.30;53.35;99972.16;4743661;24;20998;-87
2023/10/26 05:02:44;;;;;;;0.30;0.30;;;;;;;19.35;53.24;99968.75;4735461;30;20412;-85
2023/10/26 05:05:11;;;;;;;0.13;0.13;;;;;;;19.35;53.28;99979.50;4735582;30;20799;-85
2023/10/26 05:07:38;;;;;;;0.13;0.13;;;;;;;19.41;53.13;99983.88;4734626;30;20566;-85
2023/10/26 05:10:11;;;;;;;0.20;0.20;;;;;;;19.40;53.08;99977.69;4720587;30;20939;-85
2023/10/26 05:12:38;;;;;;;0.10;0.10;;;;;;;19.38;53.10;99979.00;4737859;30;20430;-83
2023/10/26 05:15:05;;;;;;;0.20;0.20;;;;;;;19.31;53.08;99989.91;4753795;30;20476;-84
2023/10/26 05:17:50;;;;;;;0.10;0.10;;;;;;;19.34;53.08;100000.19;4718725;30;20433;-84
2023/10/26 05:20:21;;;;;;;0.30;0.30;;;;;;;19.37;53.01;99996.19;4732544;30;20425;-85
2023/10/26 05:22:51;;;;;;;0.20;0.20;;;;;;;19.36;52.72;99991.88;4719421;30;20416;-86
2023/10/26 05:25:21;;;;;;;0.10;0.10;;;;;;;19.41;52.67;99991.94;4704180;30;20414;-85
2023/10/26 05:27:47;;;;;;;0.10;0.10;;;;;;;19.40;52.66;99991.13;4732270;30;20967;-85
2023/10/26 05:30:22;;;;;;;0.20;0.20;;;;;;;19.38;52.64;99997.81;4703659;30;20418;-86
2023/10/26 05:32:47;;;;;;;0.10;0.10;;;;;;;19.34;52.84;99993.97;4718196;30;20830;-86
2023/10/26 05:35:18;;;;;;;0.10;0.10;;;;;;;19.09;53.39;100004.09;4734067;30;20905;-86
2023/10/26 05:37:48;;;;;;;0.13;0.13;;;;;;;18.78;54.17;99996.53;4719283;30;20421;-85
2023/10/26 05:40:18;;;;;;;0.30;0.30;;;;;;;18.60;54.66;100008.28;4736091;30;20891;-87
2023/10/26 05:42:44;;;;;;;0.20;0.20;;;;;;;18.44;55.32;100023.28;4735840;30;20419;-85
2023/10/26 05:45:14;;;;;;;4.05;1.08;;;;;;;18.15;55.95;100020.59;4751381;30;20421;-85
2023/10/26 05:47:41;;;;;;;0.80;0.80;;;;;;;18.29;55.40;100034.53;4736475;30;20438;-84
2023/10/26 05:50:12;;;;;;;0.20;0.20;;;;;;;18.42;54.87;100036.13;4736531;30;20431;-85
2023/10/26 05:52:38;;;;;;;0.10;0.10;;;;;;;18.28;55.46;100036.41;4720472;30;20433;-83
2023/10/26 05:55:13;;;;;;;0.10;0.10;;;;;;;18.27;56.09;100039.31;4751461;30;20430;-84
2023/10/26 05:57:52;;;;;;;0.10;0.10;;;;;;;18.30;56.33;100044.22;4739454;30;20432;-83
2023/10/26 06:00:40;;;;;;;0.10;0.10;;;;;;;18.30;56.29;100050.41;4732129;30;20495;-84
2023/10/26 06:03:07;;;;;;;0.38;0.38;;;;;;;18.41;55.85;100070.19;4720263;30;20420;-84
2023/10/26 06:06:04;;;;;;;0.10;0.10;;;;;;;18.58;55.49;100056.03;4701134;30;20453;-83
2023/10/26 06:08:33;;;;;;;0.13;0.13;;;;;;;18.68;55.32;100064.28;4731632;30;20974;-84
2023/10/26 06:11:01;;;;;;;0.10;0.10;;;;;;;18.62;55.07;100055.31;4698905;30;20842;-84
2023/10/26 06:13:38;;;;;;;0.20;0.10;;;;;;;18.59;55.42;100066.53;4681746;30;20420;-83
2023/10/26 06:16:16;;;;;;;3.20;1.10;;;;;;;18.56;55.48;100069.69;4700231;30;20442;-85
2023/10/26 06:18:50;;;;;;;2.63;1.83;;;;;;;18.66;55.54;100064.53;4703293;30;20466;-83
2023/10/26 06:21:23;;;;;;;0.10;0.10;;;;;;;18.78;55.27;100060.97;4698619;30;22047;-84
2023/10/26 06:23:53;;;;;;;0.20;0.20;;;;;;;18.95;54.95;100069.13;4675333;30;20461;-86
2023/10/26 06:26:51;;;;;;;0.30;0.30;;;;;;;19.10;54.54;100072.88;4718137;30;20466;-85
2023/10/26 06:29:19;;;;;;;0.20;0.17;;;;;;;19.22;54.30;100072.81;4700725;30;20463;-84
2023/10/26 06:32:15;;;;;;;0.30;0.30;;;;;;;19.35;54.15;100070.88;4658998;30;20430;-85
2023/10/26 06:34:57;;;;;;;1.30;0.50;;;;;;;19.42;54.04;100077.69;4685173;30;20422;-86
2023/10/26 06:37:24;;;;;;;0.17;0.17;;;;;;;19.45;53.93;100071.84;4694305;30;20440;-85
2023/10/26 06:40:16;;;;;;;0.13;0.13;;;;;;;19.45;54.07;100074.53;4675541;30;20420;-87
2023/10/26 06:42:53;;;;;;;0.20;0.20;;;;;;;19.51;54.11;100086.19;4718472;30;20433;-86
2023/10/26 06:45:37;;;;;;;0.90;0.30;;;;;;;19.22;54.90;100090.81;4684773;30;20477;-85
2023/10/26 06:48:08;;;;;;;1.83;1.57;;;;;;;18.86;55.99;100082.91;4688334;30;20488;-83
2023/10/26 06:50:44;;;;;;;0.30;0.30;;;;;;;19.00;55.89;100088.81;4657869;30;20442;-81
2023/10/26 06:53:24;;;;;;;0.50;0.50;;;;;;;19.13;55.67;100092.25;4679353;30;20497;-84
2023/10/26 06:56:22;;;;;;;0.30;0.20;;;;;;;19.32;55.36;100095.53;4656877;30;20440;-85
2023/10/26 06:59:18;;;;;;;0.50;0.25;;;;;;;19.33;55.20;100089.09;4682825;30;20505;-89
2023/10/26 07:01:59;;;;;;;0.20;0.20;;;;;;;19.34;55.52;100096.09;4698029;30;20442;-86
2023/10/26 07:04:43;;;;;;;0.10;0.10;;;;;;;19.35;55.62;100095.84;4632587;30;20438;-84
2023/10/26 07:07:18;;;;;;;0.17;0.17;;;;;;;19.39;55.74;100101.56;4618394;31;20451;-87
2023/10/26 07:10:18;;;;;;;0.30;0.30;;;;;;;19.38;55.97;100089.19;4610264;30;21013;-85
2023/10/26 07:13:10;;;;;;;0.10;0.10;;;;;;;19.54;55.53;100091.06;4636854;30;20433;-89
2023/10/26 07:15:49;;;;;;;0.30;0.30;;;;;;;19.68;55.31;100087.00;4618760;31;20514;-86
2023/10/26 07:18:27;;;;;;;0.10;0.10;;;;;;;19.92;54.98;100089.53;4599818;31;20546;-87
2023/10/26 07:21:26;;;;;;;0.30;0.30;;;;;;;20.03;54.72;100091.28;4612375;31;20428;-87
2023/10/26 07:24:10;;;;;;;0.30;0.30;;;;;;;20.13;54.74;100090.63;4637828;30;20512;-87
2023/10/26 07:27:06;;;;;;;0.10;0.10;;;;;;;20.29;54.23;100097.00;4673005;30;20434;-83
2023/10/26 07:29:54;;;;;;;0.90;0.70;;;;;;;20.36;54.08;100091.44;4700843;30;20893;-84
2023/10/26 07:32:46;;;;;;;0.10;0.10;;;;;;;20.46;53.83;100091.56;4661271;30;20479;-85
2023/10/26 07:35:18;;;;;;;0.20;0.20;;;;;;;20.58;53.66;100099.50;4689205;30;20457;-85
2023/10/26 07:37:51;;;;;;;0.10;0.10;;;;;;;20.62;53.39;100088.03;4714941;30;20446;-85
2023/10/26 07:40:35;;;;;;;0.30;0.30;;;;;;;20.72;53.45;100084.63;4692628;30;20518;-84
2023/10/26 07:43:08;;;;;;;0.20;0.20;;;;;;;20.88;53.15;100082.91;4700917;30;20431;-86
2023/10/26 07:45:51;;;;;;;0.20;0.20;;;;;;;20.87;53.15;100084.00;4702617;30;20505;-84
2023/10/26 07:48:20;;;;;;;0.40;0.30;;;;;;;20.87;53.00;100070.53;4660833;30;20471;-85
2023/10/26 07:50:55;;;;;;;0.17;0.17;;;;;;;21.04;52.67;100083.06;4688669;30;20519;-84
2023/10/26 07:53:29;;;;;;;0.20;0.20;;;;;;;21.07;52.58;100072.59;4687605;30;21049;-84
2023/10/26 07:56:10;;;;;;;0.20;0.20;;;;;;;21.06;52.71;100073.66;4675468;30;20525;-85
2023/10/26 07:58:39;;;;;;;0.20;0.10;;;;;;;21.20;52.66;100072.16;4674346;30;20790;-84
2023/10/26 08:01:17;;;;;;;0.20;0.20;;;;;;;21.31;52.25;100080.34;4711907;30;20449;-84
2023/10/26 08:03:53;;;;;;;0.30;0.30;;;;;;;21.33;52.32;100072.81;4713439;30;20520;-83
2023/10/26 08:06:39;;;;;;;0.10;0.10;;;;;;;21.28;52.24;100081.66;4702755;30;20471;-84
2023/10/26 08:09:09;;;;;;;0.20;0.20;;;;;;;21.28;52.13;100073.56;4699321;30;20966;-84
2023/10/26 08:11:44;;;;;;;0.17;0.17;;;;;;;21.32;52.09;100073.88;4715776;30;20494;-84
2023/10/26 08:14:15;;;;;;;0.20;0.20;;;;;;;21.37;51.94;100077.44;4697764;30;20945;-85
2023/10/26 08:16:59;;;;;;;0.10;0.10;;;;;;;21.54;51.56;100071.13;4706433;30;20438;-86
2023/10/26 08:19:26;;;;;;;0.10;0.10;;;;;;;21.70;50.91;100075.56;4701251;30;20434;-85
2023/10/26 08:21:57;;;;;;;0.10;0.10;;;;;;;21.72;50.70;100068.00;4700800;30;20509;-82
2023/10/26 08:24:28;;;;;;;0.15;0.15;;;;;;;21.83;50.51;100066.19;4717076;30;21828;-85
2023/10/26 08:26:55;;;;;;;0.10;0.10;;;;;;;21.93;50.27;100065.44;4719193;30;20423;-85
2023/10/26 08:29:28;;;;;;;0.25;0.25;;;;;;;21.94;50.43;100065.16;4721076;30;21080;-85
2023/10/26 08:32:03;;;;;;;0.40;0.40;;;;;;;21.84;50.40;100061.59;4671973;30;20444;-83
2023/10/26 08:34:35;;;;;;;0.10;0.10;;;;;;;21.83;50.44;100058.09;4686633;30;20577;-86
2023/10/26 08:37:00;;;;;;;0.10;0.10;;;;;;;21.99;50.21;100061.69;4665900;30;20448;-84
2023/10/26 08:39:41;;;;;;;0.10;0.10;;;;;;;21.93;50.39;100058.16;4683535;30;20433;-85
2023/10/26 08:42:12;;;;;;;0.30;0.30;;;;;;;21.97;50.66;100053.06;4677380;30;20448;-85
2023/10/26 08:44:42;;;;;;;3.80;0.60;;;;;;;22.03;50.66;100057.41;4690391;30;20436;-85
2023/10/26 08:47:19;;;;;;;0.10;0.10;;;;;;;22.04;50.92;100045.53;4680244;30;20488;-85
2023/10/26 08:49:48;;;;;;;0.30;0.20;;;;;;;22.16;50.32;100045.31;4665484;30;20422;-85
2023/10/26 08:52:24;;;;;;;0.10;0.10;;;;;;;22.40;48.56;100034.91;4675188;30;20433;-86
2023/10/26 08:54:57;;;;;;;0.10;0.10;;;;;;;22.58;48.26;100038.19;4695589;30;20433;-86
2023/10/26 08:57:34;;;;;;;0.20;0.20;;;;;;;22.65;48.14;100027.94;4693810;30;20468;-86
2023/10/26 09:00:09;;;;;;;0.17;0.17;;;;;;;22.79;46.66;100034.44;4690487;30;20462;-88
2023/10/26 09:02:42;;;;;;;0.20;0.20;;;;;;;22.91;44.37;100037.72;4713985;30;20431;-86
2023/10/26 09:05:11;;;;;;;0.20;0.20;;;;;;;23.05;44.46;100032.63;4713937;30;20431;-84
2023/10/26 09:07:38;;;;;;;0.20;0.20;;;;;;;23.13;43.67;100020.47;4699461;30;20453;-84
2023/10/26 09:10:05;;;;;;;0.10;0.10;;;;;;;23.27;42.39;100013.41;4715444;30;20423;-83
2023/10/26 09:12:37;;;;;;;0.20;0.20;;;;;;;23.46;42.29;100016.38;4699252;30;20965;-84
2023/10/26 09:15:28;;;;;;;0.20;0.20;;;;;;;23.50;42.47;100013.13;4717951;30;20449;-86
2023/10/26 09:18:11;;;;;;;0.32;0.30;;;;;;;23.62;42.00;100009.06;4735200;30;20498;-85
2023/10/26 09:20:43;;;;;;;0.10;0.10;;;;;;;23.91;41.01;100010.34;4734000;30;20771;-87
2023/10/26 09:23:33;;;;;;;0.50;0.50;;;;;;;23.88;41.42;100011.72;4732287;30;20461;-85
2023/10/26 09:26:07;;;;;;;0.70;0.40;;;;;;;24.02;40.10;100010.03;4705447;30;20906;-86
2023/10/26 09:29:08;;;;;;;1.40;0.50;;;;;;;24.11;40.51;99996.75;4732821;30;20574;-82
2023/10/26 09:31:54;;;;;;;0.25;0.20;;;;;;;24.15;40.57;99991.59;4675746;30;20440;-87
2023/10/26 09:34:41;;;;;;;0.30;0.30;;;;;;;24.13;39.85;99993.72;4683719;30;20510;-85
2023/10/26 09:37:14;;;;;;;0.10;0.10;;;;;;;24.19;39.83;99996.16;4689917;30;20423;-82
2023/10/26 09:39:43;;;;;;;0.10;0.10;;;;;;;24.28;40.37;99984.75;4705683;30;20431;-84
2023/10/26 09:42:13;;;;;;;0.10;0.10;;;;;;;24.36;40.22;99990.38;4684071;30;20432;-84
2023/10/26 09:44:51;;;;;;;0.20;0.20;;;;;;;24.40;40.17;99986.03;4677917;30;20960;-83
2023/10/26 09:47:38;;;;;;;0.17;0.17;;;;;;;24.48;39.42;99973.78;4663561;30;20431;-84
2023/10/26 09:50:06;;;;;;;0.10;0.10;;;;;;;24.57;39.40;99977.53;4696195;30;20421;-84
2023/10/26 09:52:34;;;;;;;0.20;0.20;;;;;;;24.59;39.13;99975.34;4700348;30;20419;-85
2023/10/26 09:55:06;;;;;;;0.10;0.10;;;;;;;24.60;39.27;99968.06;4700767;30;20425;-85
2023/10/26 09:57:51;;;;;;;0.80;0.80;;;;;;;24.68;39.08;99964.72;4699176;30;20937;-84
2023/10/26 10:00:42;;;;;;;0.65;0.65;;;;;;;24.69;39.23;99958.22;4695674;30;20474;-84
2023/10/26 10:03:26;;;;;;;0.10;0.10;;;;;;;24.60;38.97;99949.09;4685734;30;20480;-84
2023/10/26 10:06:03;;;;;;;0.10;0.10;;;;;;;24.67;38.02;99941.44;4686358;30;20513;-84
2023/10/26 10:09:05;;;;;;;0.10;0.10;;;;;;;24.79;38.33;99951.91;4690337;30;20450;-84
2023/10/26 10:11:32;;;;;;;0.20;0.20;;;;;;;24.94;38.49;99942.84;4699605;30;20419;-85
2023/10/26 10:14:08;;;;;;;0.10;0.10;;;;;;;24.92;38.07;99935.00;4672707;30;20445;-84
2023/10/26 10:16:54;;;;;;;0.40;0.20;;;;;;;24.94;38.61;99942.84;4702063;30;20443;-84
2023/10/26 10:20:09;;;;;;;0.10;0.10;;;;;;;24.98;38.71;99933.03;4688006;30;20416;-86
2023/10/26 10:22:36;;;;;;;0.20;0.20;;;;;;;25.02;38.41;99925.16;4700727;30;20960;-83
2023/10/26 10:25:23;;;;;;;0.25;0.25;;;;;;;25.09;38.55;99925.63;4702199;30;20463;-85
2023/10/26 10:27:54;;;;;;;0.17;0.17;;;;;;;25.04;38.02;99918.34;4700955;30;20602;-83
2023/10/26 10:30:23;;;;;;;0.20;0.20;;;;;;;25.15;37.84;99919.84;4684141;30;20533;-84
2023/10/26 10:32:56;;;;;;;0.10;0.10;;;;;;;25.12;37.21;99909.59;4700081;30;20442;-82
2023/10/26 10:35:24;;;;;;;0.10;0.10;;;;;;;25.29;37.52;99922.72;4698205;30;20450;-84
2023/10/26 10:38:26;;;;;;;0.10;0.10;;;;;;;25.25;35.99;99913.56;4698240;30;20469;-86
2023/10/26 10:40:54;;;;;;;0.10;0.10;;;;;;;25.43;36.83;99911.19;4698755;30;20422;-83
2023/10/26 10:43:32;;;;;;;0.20;0.20;;;;;;;25.47;36.96;99904.09;4682957;30;20418;-83
2023/10/26 10:46:26;;;;;;;0.40;0.20;;;;;;;25.46;37.49;99891.59;4716488;30;20423;-83
2023/10/26 10:49:03;;;;;;;0.20;0.20;;;;;;;25.44;37.20;99882.97;4701769;30;21033;-84
2023/10/26 10:51:39;;;;;;;0.10;0.10;;;;;;;25.43;37.09;99878.63;4716681;30;20472;-83
2023/10/26 10:54:14;;;;;;;0.10;0.10;;;;;;;25.44;35.73;99878.31;4721432;30;20524;-85
2023/10/26 10:56:46;;;;;;;0.20;0.20;;;;;;;25.51;36.76;99884.22;4727230;30;20423;-84
2023/10/26 10:59:22;;;;;;;0.00;0.00;;;;;;;25.57;36.48;99884.97;4703369;30;20431;-83
2023/10/26 11:02:15;;;;;;;0.10;0.10;;;;;;;25.75;34.76;99883.41;4715894;30;20419;-82
2023/10/26 11:04:56;;;;;;;0.10;0.10;;;;;;;25.84;35.31;99886.25;4716310;30;20431;-83
2023/10/26 11:07:33;;;;;;;0.10;0.10;;;;;;;25.87;35.02;99875.59;4716187;30;20475;-84
2023/10/26 11:10:03;;;;;;;0.10;0.10;;;;;;;25.81;34.88;99868.66;4701477;30;20495;-83
2023/10/26 11:12:30;;;;;;;0.10;0.10;;;;;;;26.06;34.92;99864.00;4715690;30;20419;-83
2023/10/26 11:15:08;;;;;;;0.10;0.10;;;;;;;26.08;35.05;99865.31;4716857;30;20447;-83
2023/10/26 11:17:34;;;;;;;0.20;0.20;;;;;;;26.12;34.76;99857.38;4679147;30;20423;-82
2023/10/26 11:20:27;;;;;;;0.10;0.10;;;;;;;26.27;35.20;99854.44;4689382;30;20441;-82
2023/10/26 11:23:00;;;;;;;0.10;0.10;;;;;;;26.35;33.28;99844.00;4718294;30;20423;-84
2023/10/26 11:25:27;;;;;;;0.10;0.10;;;;;;;26.41;33.81;99845.50;4720714;30;20455;-82
2023/10/26 11:28:08;;;;;;;0.10;0.10;;;;;;;26.47;33.92;99836.97;4721142;30;20820;-83
2023/10/26 11:30:55;;;;;;;0.20;0.20;;;;;;;26.52;33.97;99846.94;4720889;30;20415;-83
2023/10/26 11:33:37;;;;;;;0.17;0.17;;;;;;;26.61;33.94;99853.34;4720050;30;20417;-84
2023/10/26 11:36:11;;;;;;;0.10;0.10;;;;;;;26.56;33.23;99842.53;4716444;30;20992;-83
2023/10/26 11:38:51;;;;;;;0.10;0.10;;;;;;;26.74;33.47;99842.78;4701445;30;20880;-84
2023/10/26 11:41:29;;;;;;;1.00;0.30;;;;;;;26.71;33.94;99836.06;4717256;30;20507;-82
2023/10/26 11:44:00;;;;;;;0.40;0.20;;;;;;;26.72;34.00;99839.56;4664285;30;21051;-83
2023/10/26 11:46:29;;;;;;;0.10;0.10;;;;;;;26.73;33.67;99833.03;4649133;30;20436;-84
2023/10/26 11:48:59;;;;;;;0.10;0.10;;;;;;;26.76;34.04;99835.97;4649433;30;20846;-83
2023/10/26 11:51:28;;;;;;;0.20;0.20;;;;;;;26.77;33.61;99834.84;4664257;30;20424;-83
2023/10/26 11:53:56;;;;;;;0.10;0.10;;;;;;;26.82;33.69;99829.31;4665332;30;20461;-85
2023/10/26 11:56:44;;;;;;;0.30;0.30;;;;;;;26.82;34.15;99823.09;4616518;31;20435;-82